createdAt,value
2019-04-10T00:00:45.923Z,34.80
2019-04-10T00:03:26.511Z,34.58
2019-04-10T00:05:46.367Z,34.80
2019-04-10T00:08:15.851Z,36.10
2019-04-10T00:10:45.840Z,35.78
2019-04-10T00:13:15.396Z,34.58
2019-04-10T00:15:44.783Z,34.20
2019-04-10T00:18:14.483Z,33.35
2019-04-10T00:20:44.801Z,33.55
2019-04-10T00:23:15.170Z,32.83
2019-04-10T00:25:45.330Z,30.45
2019-04-10T00:28:15.000Z,32.93
2019-04-10T00:30:45.070Z,31.02
2019-04-10T00:33:14.572Z,29.20
2019-04-10T00:35:44.012Z,29.85
2019-04-10T00:38:13.669Z,30.57
2019-04-10T00:40:43.717Z,31.50
2019-04-10T00:43:13.321Z,30.57
2019-04-10T00:45:43.887Z,30.05
2019-04-10T00:48:13.518Z,29.60
2019-04-10T00:50:42.948Z,29.20
2019-04-10T00:53:12.760Z,28.02
2019-04-10T00:55:42.309Z,28.50
2019-04-10T00:58:12.128Z,27.90
2019-04-10T01:00:41.618Z,27.52
2019-04-10T01:03:13.449Z,27.62
2019-04-10T01:05:43.743Z,27.10
2019-04-10T01:08:13.189Z,26.62
2019-04-10T01:10:42.607Z,26.97
2019-04-10T01:13:12.401Z,24.95
2019-04-10T01:15:42.709Z,27.00
2019-04-10T01:18:13.046Z,26.15
2019-04-10T01:20:42.522Z,26.48
2019-04-10T01:23:11.986Z,24.30
2019-04-10T01:25:41.381Z,23.73
2019-04-10T01:28:10.777Z,24.27
2019-04-10T01:30:40.366Z,23.75
2019-04-10T01:33:09.929Z,23.52
2019-04-10T01:35:40.477Z,23.83
2019-04-10T01:38:10.005Z,22.50
2019-04-10T01:40:39.465Z,22.22
2019-04-10T01:43:13.387Z,21.20
2019-04-10T01:45:40.024Z,21.65
2019-04-10T01:48:10.055Z,21.33
2019-04-10T01:50:39.586Z,21.05
2019-04-10T01:53:09.163Z,20.10
2019-04-10T01:55:38.992Z,20.40
2019-04-10T01:58:12.817Z,21.12
2019-04-10T02:01:32.566Z,19.75
2019-04-10T02:04:02.636Z,18.82
2019-04-10T02:06:32.174Z,19.23
2019-04-10T02:09:02.561Z,18.57
2019-04-10T02:11:32.262Z,18.80
2019-04-10T02:14:02.301Z,17.15
2019-04-10T02:16:32.590Z,18.12
2019-04-10T02:19:02.141Z,17.95
2019-04-10T02:21:31.789Z,17.73
2019-04-10T02:24:01.342Z,17.92
2019-04-10T02:26:31.760Z,17.42
2019-04-10T02:29:01.723Z,17.10
2019-04-10T02:31:32.012Z,17.15
2019-04-10T02:34:01.783Z,16.60
2019-04-10T02:36:31.655Z,16.65
2019-04-10T02:39:12.235Z,17.05
2019-04-10T02:41:32.525Z,17.60
2019-04-10T02:44:04.840Z,16.85
2019-04-10T02:46:34.462Z,17.02
2019-04-10T02:49:04.318Z,17.10
2019-04-10T02:51:35.280Z,16.40
2019-04-10T02:54:05.700Z,17.35
2019-04-10T02:56:36.633Z,17.45
2019-04-10T02:59:07.336Z,16.05
2019-04-10T03:01:37.952Z,16.45
2019-04-10T03:04:08.959Z,16.15
2019-04-10T03:06:39.580Z,15.60
2019-04-10T03:09:28.215Z,16.62
2019-04-10T03:11:41.950Z,16.75
2019-04-10T03:14:12.506Z,15.30
2019-04-10T03:16:42.075Z,16.67
2019-04-10T03:19:11.662Z,16.48
2019-04-10T03:21:41.199Z,15.95
2019-04-10T03:24:11.763Z,15.40
2019-04-10T03:26:41.535Z,15.15
2019-04-10T03:29:11.603Z,15.20
2019-04-10T03:31:41.589Z,15.78
2019-04-10T03:34:21.825Z,15.13
2019-04-10T03:36:50.413Z,15.43
2019-04-10T03:39:19.850Z,14.93
2019-04-10T03:41:50.480Z,15.05
2019-04-10T03:44:20.735Z,14.45
2019-04-10T03:46:51.184Z,15.45
2019-04-10T03:49:22.099Z,14.25
2019-04-10T03:51:52.567Z,14.63
2019-04-10T03:54:22.916Z,15.45
2019-04-10T03:56:52.437Z,14.60
2019-04-10T03:59:22.408Z,15.80
2019-04-10T04:01:51.856Z,14.87
2019-04-10T04:04:21.632Z,14.85
2019-04-10T04:06:52.256Z,14.50
2019-04-10T04:09:21.802Z,13.45
2019-04-10T04:11:51.209Z,14.33
2019-04-10T04:14:20.671Z,13.72
2019-04-10T04:16:51.157Z,13.98
2019-04-10T04:19:22.024Z,13.18
2019-04-10T04:21:52.351Z,13.00
2019-04-10T04:24:25.523Z,12.30
2019-04-10T04:26:55.639Z,13.62
2019-04-10T04:29:25.065Z,13.05
2019-04-10T04:31:54.698Z,13.03
2019-04-10T04:34:25.024Z,13.22
2019-04-10T04:36:55.622Z,12.25
2019-04-10T04:39:28.131Z,12.25
2019-04-10T04:41:56.426Z,11.68
2019-04-10T04:44:26.961Z,12.20
2019-04-10T04:47:15.672Z,11.68
2019-04-10T04:49:45.227Z,12.40
2019-04-10T04:52:14.661Z,11.95
2019-04-10T04:54:44.063Z,11.30
2019-04-10T04:57:13.621Z,12.13
2019-04-10T04:59:43.025Z,11.43
2019-04-10T05:02:12.822Z,10.90
2019-04-10T05:04:42.257Z,11.60
2019-04-10T05:07:13.426Z,10.28
2019-04-10T05:09:43.870Z,11.05
2019-04-10T05:12:13.481Z,10.70
2019-04-10T05:14:43.978Z,10.50
2019-04-10T05:17:16.416Z,10.08
2019-04-10T05:19:44.939Z,10.08
2019-04-10T05:22:14.436Z,11.03
2019-04-10T05:24:44.645Z,9.15
2019-04-10T05:27:14.159Z,10.00
2019-04-10T05:29:43.586Z,10.43
2019-04-10T05:32:14.345Z,9.93
2019-04-10T05:34:44.732Z,10.00
2019-04-10T05:37:14.217Z,10.05
2019-04-10T05:39:50.303Z,9.83
2019-04-10T05:42:14.796Z,10.32
2019-04-10T05:44:44.403Z,9.83
2019-04-10T05:47:13.757Z,9.78
2019-04-10T05:49:43.190Z,9.63
2019-04-10T05:52:12.743Z,8.58
2019-04-10T05:54:42.213Z,8.38
2019-04-10T05:57:12.461Z,10.50
2019-04-10T05:59:41.989Z,10.43
2019-04-10T06:02:11.383Z,8.98
2019-04-10T06:04:41.650Z,8.95
2019-04-10T06:07:11.172Z,8.55
2019-04-10T06:09:51.978Z,7.53
2019-04-10T06:12:11.886Z,7.67
2019-04-10T06:14:42.067Z,8.55
2019-04-10T06:17:11.530Z,8.80
2019-04-10T06:19:40.962Z,8.60
2019-04-10T06:22:11.234Z,7.85
2019-04-10T06:24:41.025Z,8.45
2019-04-10T06:27:10.792Z,8.40
2019-04-10T06:29:41.303Z,7.00
2019-04-10T06:32:11.503Z,7.80
2019-04-10T06:34:40.956Z,7.65
2019-04-10T06:37:10.317Z,8.00
2019-04-10T06:39:41.986Z,7.87
2019-04-10T06:42:12.028Z,7.17
2019-04-10T06:44:41.822Z,6.87
2019-04-10T06:47:11.945Z,8.08
2019-04-10T06:49:41.758Z,7.97
2019-04-10T06:52:11.316Z,7.15
2019-04-10T06:54:42.257Z,8.23
2019-04-10T06:57:11.689Z,8.63
2019-04-10T06:59:42.000Z,7.70
2019-04-10T07:02:23.811Z,8.05
2019-04-10T07:04:52.428Z,7.83
2019-04-10T07:07:20.270Z,7.67
2019-04-10T07:09:48.304Z,7.22
2019-04-10T07:12:18.606Z,6.65
2019-04-10T07:14:50.698Z,6.78
2019-04-10T07:17:20.273Z,6.70
2019-04-10T07:19:49.697Z,7.00
2019-04-10T07:22:20.651Z,7.58
2019-04-10T07:24:51.840Z,8.05
2019-04-10T07:27:21.855Z,6.42
2019-04-10T07:29:56.554Z,7.50
2019-04-10T07:32:24.254Z,6.75
2019-04-10T07:34:59.139Z,7.00
2019-04-10T07:37:25.979Z,7.60
2019-04-10T07:39:59.699Z,7.35
2019-04-10T07:42:33.846Z,6.85
2019-04-10T07:44:58.366Z,6.62
2019-04-10T07:47:27.789Z,6.50
2019-04-10T07:49:59.505Z,7.70
2019-04-10T07:52:29.530Z,6.03
2019-04-10T07:54:59.040Z,6.05
2019-04-10T07:57:28.675Z,6.05
2019-04-10T07:59:58.789Z,6.92
2019-04-10T08:02:28.218Z,6.95
2019-04-10T08:04:57.989Z,6.10
2019-04-10T08:07:32.587Z,7.50
2019-04-10T08:09:59.283Z,5.90
2019-04-10T08:12:39.592Z,6.65
2019-04-10T08:15:00.687Z,6.65
2019-04-10T08:17:30.435Z,5.97
2019-04-10T08:19:59.921Z,6.17
2019-04-10T08:22:29.353Z,6.58
2019-04-10T08:25:00.077Z,5.67
2019-04-10T08:27:29.913Z,5.75
2019-04-10T08:29:59.412Z,6.45
2019-04-10T08:32:29.947Z,6.65
2019-04-10T08:35:00.354Z,6.20
2019-04-10T08:37:29.826Z,5.20
2019-04-10T08:39:59.592Z,6.30
2019-04-10T08:42:29.013Z,6.08
2019-04-10T08:45:05.755Z,5.70
2019-04-10T08:47:37.531Z,7.30
2019-04-10T08:55:21.901Z,7.33
2019-04-10T08:57:48.138Z,6.53
2019-04-10T09:00:20.570Z,6.15
2019-04-10T09:02:52.611Z,6.55
2019-04-10T09:05:23.731Z,6.60
2019-04-10T09:07:53.239Z,7.58
2019-04-10T09:10:22.717Z,7.90
2019-04-10T09:12:54.434Z,7.65
2019-04-10T09:15:23.548Z,6.45
2019-04-10T09:17:53.486Z,6.95
2019-04-10T09:20:23.017Z,6.50
2019-04-10T09:23:13.379Z,7.65
2019-04-10T09:25:24.922Z,8.40
2019-04-10T09:27:54.492Z,6.85
2019-04-10T09:30:24.750Z,7.62
2019-04-10T09:32:54.871Z,7.35
2019-04-10T09:35:24.735Z,8.10
2019-04-10T09:37:54.553Z,8.48
2019-04-10T09:40:43.161Z,8.40
2019-04-10T09:43:14.210Z,8.48
2019-04-10T09:45:43.859Z,8.60
2019-04-10T09:48:20.698Z,7.97
2019-04-10T09:50:50.292Z,9.05
2019-04-10T09:53:19.817Z,9.43
2019-04-10T09:55:49.243Z,13.13
2019-04-10T09:58:19.764Z,12.15
2019-04-10T10:00:49.702Z,8.98
2019-04-10T10:03:19.515Z,8.35
2019-04-10T10:05:49.352Z,8.38
2019-04-10T10:08:18.794Z,8.40
2019-04-10T10:10:49.161Z,8.75
2019-04-10T10:13:18.653Z,8.53
2019-04-10T10:15:48.076Z,8.15
2019-04-10T10:18:17.532Z,8.23
2019-04-10T10:20:48.179Z,8.38
2019-04-10T10:23:17.978Z,8.63
2019-04-10T10:25:47.797Z,7.92
2019-04-10T10:28:17.283Z,7.30
2019-04-10T10:30:47.393Z,7.67
2019-04-10T10:33:17.494Z,8.23
2019-04-10T10:35:47.440Z,8.03
2019-04-10T10:38:17.605Z,7.25
2019-04-10T10:41:06.766Z,8.55
2019-04-10T10:43:36.313Z,7.75
2019-04-10T10:52:40.419Z,6.95
2019-04-10T10:55:10.081Z,6.90
2019-04-10T10:57:39.712Z,5.87
2019-04-10T11:00:12.770Z,6.85
2019-04-10T11:02:41.487Z,6.83
2019-04-10T11:05:11.330Z,7.10
2019-04-10T11:07:40.793Z,7.08
2019-04-10T11:10:10.983Z,6.25
2019-04-10T11:12:40.420Z,7.95
2019-04-10T11:15:10.150Z,7.20
2019-04-10T11:17:47.061Z,7.53
2019-04-10T11:20:17.814Z,6.10
2019-04-10T11:22:47.481Z,7.03
2019-04-10T11:25:19.517Z,6.95
2019-04-10T11:27:50.207Z,6.67
2019-04-10T11:30:20.627Z,6.78
2019-04-10T11:32:50.708Z,7.33
2019-04-10T11:35:21.834Z,6.78
2019-04-10T11:37:53.671Z,6.28
2019-04-10T11:40:23.547Z,6.35
2019-04-10T11:42:54.222Z,7.00
2019-04-10T11:45:26.146Z,5.92
2019-04-10T11:47:56.535Z,5.83
2019-04-10T11:50:28.116Z,6.85
2019-04-10T11:53:00.348Z,6.70
2019-04-10T11:55:29.589Z,6.17
2019-04-10T11:58:00.026Z,7.05
2019-04-10T12:00:50.349Z,6.33
2019-04-10T12:03:15.230Z,6.55
2019-04-10T12:05:46.366Z,6.35
2019-04-10T12:08:41.699Z,6.35
2019-04-10T12:13:18.378Z,7.10
2019-04-10T12:15:48.821Z,7.85
2019-04-10T12:18:18.371Z,9.60
2019-04-10T12:20:47.903Z,7.30
2019-04-10T12:23:18.795Z,7.70
2019-04-10T12:25:49.341Z,7.35
2019-04-10T12:28:20.135Z,6.28
2019-04-10T12:30:51.210Z,6.72
2019-04-10T12:33:23.380Z,7.28
2019-04-10T12:35:54.097Z,7.20
2019-04-10T12:38:23.673Z,7.58
2019-04-10T12:40:53.151Z,6.17
2019-04-10T12:43:23.175Z,6.60
2019-04-10T12:45:52.745Z,6.75
2019-04-10T12:48:23.020Z,7.00
2019-04-10T12:50:53.054Z,7.35
2019-04-10T12:53:23.307Z,7.62
2019-04-10T12:55:53.599Z,7.87
2019-04-10T12:58:23.105Z,7.08
2019-04-10T13:00:52.621Z,7.30
2019-04-10T13:03:23.330Z,6.78
2019-04-10T13:05:53.621Z,7.05
2019-04-10T13:08:31.340Z,7.03
2019-04-10T13:10:54.597Z,7.35
2019-04-10T13:13:24.306Z,8.25
2019-04-10T13:15:54.143Z,8.28
2019-04-10T13:18:24.637Z,7.25
2019-04-10T13:20:54.145Z,8.30
2019-04-10T13:23:24.555Z,7.17
2019-04-10T13:25:59.153Z,6.62
2019-04-10T13:28:25.548Z,8.15
2019-04-10T13:30:56.586Z,6.75
2019-04-10T13:33:26.729Z,7.95
2019-04-10T13:35:57.519Z,7.40
2019-04-10T13:38:32.716Z,7.78
2019-04-10T13:40:58.502Z,7.65
2019-04-10T13:43:27.911Z,8.35
2019-04-10T13:45:58.421Z,6.95
2019-04-10T13:48:27.815Z,7.72
2019-04-10T13:50:57.245Z,7.90
2019-04-10T13:53:28.048Z,8.13
2019-04-10T13:55:57.597Z,7.95
2019-04-10T13:58:28.852Z,8.25
2019-04-10T14:00:58.780Z,9.30
2019-04-10T14:03:28.676Z,7.87
2019-04-10T14:05:58.088Z,8.00
2019-04-10T14:08:41.549Z,9.08
2019-04-10T14:11:00.463Z,9.50
2019-04-10T14:13:30.144Z,11.20
2019-04-10T14:16:00.638Z,9.00
2019-04-10T14:18:30.140Z,8.35
2019-04-10T14:20:59.649Z,9.55
2019-04-10T14:23:31.210Z,8.50
2019-04-10T14:26:41.915Z,8.88
2019-04-10T14:29:09.366Z,8.55
2019-04-10T14:31:42.648Z,9.05
2019-04-10T14:34:12.418Z,8.95
2019-04-10T14:36:42.309Z,8.78
2019-04-10T14:39:19.360Z,8.60
2019-04-10T14:41:47.044Z,8.55
2019-04-10T14:44:16.585Z,9.18
2019-04-10T14:46:46.445Z,8.80
2019-04-10T14:49:16.843Z,9.05
2019-04-10T14:51:46.392Z,9.45
2019-04-10T14:54:15.873Z,8.73
2019-04-10T14:56:46.367Z,8.33
2019-04-10T14:59:16.365Z,9.55
2019-04-10T15:01:46.567Z,9.33
2019-04-10T15:04:17.267Z,8.25
2019-04-10T15:06:47.873Z,9.08
2019-04-10T15:09:25.554Z,9.40
2019-04-10T15:11:55.888Z,9.15
2019-04-10T15:14:26.329Z,8.75
2019-04-10T15:17:01.882Z,10.45
2019-04-10T15:19:26.923Z,10.13
2019-04-10T15:21:56.766Z,9.90
2019-04-10T15:24:27.806Z,10.10
2019-04-10T15:26:57.397Z,9.63
2019-04-10T15:29:28.000Z,9.98
2019-04-10T15:31:57.844Z,9.50
2019-04-10T15:34:28.224Z,8.45
2019-04-10T15:36:58.474Z,9.63
2019-04-10T15:39:33.982Z,9.93
2019-04-10T15:41:59.524Z,11.55
2019-04-10T15:44:29.852Z,8.90
2019-04-10T15:47:10.579Z,9.15
2019-04-10T15:49:30.997Z,8.75
2019-04-10T15:52:01.500Z,10.40
2019-04-10T15:54:32.126Z,8.95
2019-04-10T15:57:02.645Z,10.00
2019-04-10T15:59:32.402Z,9.53
2019-04-10T16:02:02.097Z,9.58
2019-04-10T16:04:31.648Z,9.50
2019-04-10T16:07:02.101Z,9.48
2019-04-10T16:09:44.470Z,10.32
2019-04-10T16:12:11.457Z,11.10
2019-04-10T16:14:40.849Z,10.30
2019-04-10T16:17:32.119Z,9.38
2019-04-10T16:20:23.355Z,8.55
2019-04-10T16:23:28.903Z,9.50
2019-04-10T16:25:58.648Z,9.30
2019-04-10T16:28:29.267Z,10.25
2019-04-10T16:30:59.235Z,9.05
2019-04-10T16:33:29.446Z,10.00
2019-04-10T16:35:59.121Z,10.08
2019-04-10T16:38:29.260Z,10.90
2019-04-10T16:40:58.983Z,11.03
2019-04-10T16:43:29.152Z,11.93
2019-04-10T16:45:59.462Z,9.95
2019-04-10T16:48:29.010Z,12.88
2019-04-10T16:50:59.728Z,11.60
2019-04-10T16:53:32.246Z,11.45
2019-04-10T16:56:02.061Z,9.35
2019-04-10T16:58:31.990Z,10.65
2019-04-10T17:01:04.398Z,10.28
2019-04-10T17:03:33.939Z,10.28
2019-04-10T17:06:08.226Z,10.10
2019-04-10T17:08:38.851Z,10.60
2019-04-10T17:11:09.190Z,11.78
2019-04-10T17:13:40.435Z,10.85
2019-04-10T17:16:10.958Z,9.63
2019-04-10T17:18:41.355Z,9.98
2019-04-10T17:21:11.156Z,9.25
2019-04-10T17:23:40.719Z,10.08
2019-04-10T17:26:10.781Z,10.32
2019-04-10T17:28:40.699Z,10.05
2019-04-10T17:31:10.954Z,10.48
2019-04-10T17:33:41.896Z,9.50
2019-04-10T17:36:11.928Z,10.00
2019-04-10T17:38:42.501Z,10.15
2019-04-10T17:41:12.242Z,10.40
2019-04-10T17:43:41.749Z,10.68
2019-04-10T17:46:11.203Z,11.35
2019-04-10T17:48:42.074Z,10.30
2019-04-10T17:51:12.270Z,10.40
2019-04-10T17:53:42.059Z,9.58
2019-04-10T17:56:11.985Z,10.98
2019-04-10T17:58:42.094Z,9.70
2019-04-10T18:01:13.801Z,10.13
2019-04-10T18:03:51.632Z,11.08
2019-04-10T18:06:15.204Z,10.32
2019-04-10T18:08:45.227Z,9.58
2019-04-10T18:11:14.738Z,10.65
2019-04-10T18:13:44.955Z,9.93
2019-04-10T18:16:14.792Z,9.88
2019-04-10T18:18:45.454Z,10.25
2019-04-10T18:21:16.947Z,10.38
2019-04-10T18:23:47.406Z,10.93
2019-04-10T18:26:20.281Z,10.25
2019-04-10T18:28:49.779Z,10.38
2019-04-10T18:31:22.501Z,10.30
2019-04-10T18:33:51.128Z,10.90
2019-04-10T18:36:20.918Z,12.03
2019-04-10T18:38:51.497Z,11.05
2019-04-10T18:41:24.136Z,10.60
2019-04-10T18:43:53.993Z,12.00
2019-04-10T18:46:23.980Z,11.95
2019-04-10T18:48:54.731Z,10.82
2019-04-10T18:51:26.651Z,11.12
2019-04-10T18:53:57.905Z,10.70
2019-04-10T18:56:27.397Z,12.03
2019-04-10T18:59:18.474Z,11.40
2019-04-10T19:02:07.530Z,11.63
2019-04-10T19:04:47.434Z,10.95
2019-04-10T19:07:20.740Z,10.45
2019-04-10T19:09:54.634Z,10.55
2019-04-10T19:12:25.119Z,10.68
2019-04-10T19:14:58.347Z,10.75
2019-04-10T19:17:29.058Z,10.48
2019-04-10T19:20:01.961Z,10.38
2019-04-10T19:22:32.443Z,10.75
2019-04-10T19:25:04.542Z,10.35
2019-04-10T19:27:35.971Z,10.85
2019-04-10T19:30:08.093Z,10.45
2019-04-10T19:32:37.636Z,11.30
2019-04-10T19:35:10.837Z,11.10
2019-04-10T19:37:40.809Z,10.65
2019-04-10T19:40:11.257Z,10.08
2019-04-10T19:42:41.795Z,11.55
2019-04-10T19:45:13.369Z,10.68
2019-04-10T19:47:44.114Z,10.70
2019-04-10T19:50:15.569Z,10.45
2019-04-10T19:52:45.036Z,10.68
2019-04-10T19:57:50.380Z,10.53
2019-04-10T20:00:22.575Z,11.65
2019-04-10T20:02:52.121Z,11.12
2019-04-10T20:05:21.877Z,10.32
2019-04-10T20:07:51.735Z,10.63
2019-04-10T20:10:21.389Z,11.33
2019-04-10T20:12:50.989Z,11.28
2019-04-10T20:15:21.117Z,10.95
2019-04-10T20:17:50.571Z,10.98
2019-04-10T20:20:20.005Z,11.15
2019-04-10T20:22:50.119Z,13.70
2019-04-10T20:25:19.656Z,15.65
2019-04-10T20:27:50.114Z,15.10
2019-04-10T20:30:21.508Z,12.15
2019-04-10T20:32:50.964Z,12.35
2019-04-10T20:35:20.373Z,13.75
2019-04-10T20:37:49.823Z,12.70
2019-04-10T20:40:20.642Z,12.25
2019-04-10T20:42:50.831Z,11.88
2019-04-10T20:45:21.112Z,12.45
2019-04-10T20:47:51.845Z,11.85
2019-04-10T20:50:21.703Z,12.45
2019-04-10T20:52:51.544Z,11.43
2019-04-10T20:55:21.640Z,10.82
2019-04-10T20:57:52.095Z,11.85
2019-04-10T21:00:30.062Z,12.58
2019-04-10T21:03:00.665Z,11.93
2019-04-10T21:05:30.233Z,11.35
2019-04-10T21:07:59.892Z,10.75
2019-04-10T21:10:29.436Z,11.73
2019-04-10T21:12:59.683Z,11.63
2019-04-10T21:15:30.008Z,11.15
2019-04-10T21:17:59.487Z,10.80
2019-04-10T21:20:28.885Z,10.75
2019-04-10T21:22:58.454Z,10.80
2019-04-10T21:25:27.919Z,11.45
2019-04-10T21:27:57.809Z,11.12
2019-04-10T21:30:49.261Z,11.10
2019-04-10T21:33:52.710Z,11.45
2019-04-10T21:36:22.128Z,11.25
2019-04-10T21:38:52.523Z,12.00
2019-04-10T21:41:22.429Z,12.03
2019-04-10T21:43:52.298Z,11.80
2019-04-10T21:46:22.218Z,10.20
2019-04-10T21:48:51.725Z,12.10
2019-04-10T21:51:21.591Z,11.75
2019-04-10T21:53:51.021Z,11.65
2019-04-10T21:56:40.920Z,12.25
2019-04-10T21:59:11.105Z,12.37
2019-04-10T22:01:40.786Z,11.78
2019-04-10T22:04:10.352Z,11.80
2019-04-10T22:07:11.872Z,11.03
2019-04-10T22:10:01.455Z,11.18
2019-04-10T22:12:34.813Z,11.70
2019-04-10T22:15:04.459Z,12.05
2019-04-10T22:17:34.192Z,12.30
2019-04-10T22:20:04.001Z,11.53
2019-04-10T22:22:33.516Z,12.40
2019-04-10T22:25:03.640Z,11.60
2019-04-10T22:27:33.784Z,12.80
2019-04-10T22:30:03.490Z,11.93
2019-04-10T22:32:33.148Z,11.95
2019-04-10T22:35:03.346Z,12.25
2019-04-10T22:37:32.913Z,12.70
2019-04-10T22:40:02.329Z,12.40
2019-04-10T22:42:40.077Z,12.80
2019-04-10T22:45:02.809Z,12.43
2019-04-10T22:47:32.903Z,12.95
2019-04-10T22:50:03.409Z,13.13
2019-04-10T22:52:32.809Z,12.40
2019-04-10T22:55:02.281Z,13.30
2019-04-10T22:57:31.701Z,12.33
2019-04-10T23:00:01.145Z,12.70
2019-04-10T23:02:30.549Z,12.73
2019-04-10T23:04:59.980Z,13.48
2019-04-10T23:07:30.222Z,12.95
2019-04-10T23:10:00.353Z,12.15
2019-04-10T23:12:30.039Z,12.95
2019-04-10T23:14:59.540Z,13.45
2019-04-10T23:17:30.074Z,13.68
2019-04-10T23:20:00.636Z,13.48
2019-04-10T23:22:31.353Z,13.80
2019-04-10T23:25:01.668Z,13.80
2019-04-10T23:27:32.053Z,12.47
2019-04-10T23:30:02.494Z,15.05
2019-04-10T23:32:32.128Z,14.30
2019-04-10T23:35:01.467Z,14.23
2019-04-10T23:37:31.006Z,12.40
2019-04-10T23:40:00.767Z,13.15
2019-04-10T23:42:30.366Z,12.80
2019-04-10T23:44:59.751Z,13.25
2019-04-10T23:47:29.193Z,12.82
2019-04-10T23:49:59.619Z,13.72
2019-04-10T23:52:29.763Z,12.50
2019-04-10T23:54:59.680Z,13.38
2019-04-10T23:57:29.527Z,12.60
2019-04-10T23:59:59.287Z,14.15
